Time;durP1;ratioP1;P1;durP2;ratioP2;P2;SDS_P1;SDS_P2;PMS_P1;PMS_P2;Temp;Humidity;BMP_temperature;BMP_pressure;BME280_temperature;BME280_humidity;BME280_pressure;Samples;Min_cycle;Max_cycle;Signal;HPM_P1;HPM_P2
2023/05/20 00:01:52;;;;;;;0.50;0.40;;;11.80;99.90;;;;;;5115244;28;20529;-82
2023/05/20 00:04:19;;;;;;;0.50;0.40;;;11.70;99.90;;;;;;5115372;28;20441;-82
2023/05/20 00:06:46;;;;;;;0.50;0.40;;;11.70;99.90;;;;;;5116235;28;20434;-82
2023/05/20 00:09:12;;;;;;;0.50;0.50;;;11.70;99.90;;;;;;5115489;28;20450;-83
2023/05/20 00:11:39;;;;;;;0.50;0.40;;;11.60;99.90;;;;;;5115319;28;20570;-80
2023/05/20 00:14:07;;;;;;;0.50;0.40;;;11.70;99.90;;;;;;5115016;28;20517;-82
2023/05/20 00:16:35;;;;;;;0.50;0.40;;;11.70;99.90;;;;;;5115274;28;20929;-81
2023/05/20 00:19:02;;;;;;;0.50;0.40;;;11.60;99.90;;;;;;5114983;28;20216;-83
2023/05/20 00:21:30;;;;;;;0.50;0.40;;;11.60;99.90;;;;;;5115250;28;20260;-80
2023/05/20 00:23:58;;;;;;;0.50;0.40;;;11.60;99.90;;;;;;5114726;28;20193;-83
2023/05/20 00:26:25;;;;;;;0.50;0.40;;;11.60;99.90;;;;;;5115061;28;20189;-82
2023/05/20 00:28:52;;;;;;;0.50;0.40;;;11.60;99.90;;;;;;5114725;28;20882;-83
2023/05/20 00:31:20;;;;;;;0.50;0.40;;;11.60;99.90;;;;;;5115333;28;20203;-83
2023/05/20 00:33:47;;;;;;;0.50;0.50;;;11.60;99.90;;;;;;5115357;28;20272;-81
2023/05/20 00:36:14;;;;;;;0.50;0.40;;;11.60;99.90;;;;;;5115409;28;20596;-82
2023/05/20 00:38:41;;;;;;;0.50;0.40;;;11.60;99.90;;;;;;5114554;28;20303;-81
2023/05/20 00:41:08;;;;;;;0.50;0.40;;;11.70;99.90;;;;;;5114982;28;20189;-80
2023/05/20 00:43:34;;;;;;;0.50;0.40;;;11.60;99.90;;;;;;5114529;28;20216;-79
2023/05/20 00:46:02;;;;;;;0.50;0.40;;;11.60;99.90;;;;;;5114931;28;20193;-82
2023/05/20 00:48:37;;;;;;;0.50;0.40;;;11.70;99.90;;;;;;5115339;28;20578;-83
2023/05/20 00:51:06;;;;;;;0.50;0.40;;;11.70;99.90;;;;;;5114925;28;20200;-81
2023/05/20 00:53:35;;;;;;;0.50;0.40;;;11.60;99.90;;;;;;5114592;28;20284;-84
2023/05/20 00:56:02;;;;;;;0.50;0.40;;;11.70;99.90;;;;;;5114670;28;20230;-82
2023/05/20 00:58:29;;;;;;;0.70;0.70;;;11.70;99.90;;;;;;5114386;28;20288;-83
2023/05/20 01:00:56;;;;;;;0.50;0.40;;;11.70;99.90;;;;;;5114784;28;20280;-81
2023/05/20 01:03:23;;;;;;;0.50;0.40;;;11.60;99.90;;;;;;5114654;28;20199;-83
2023/05/20 01:05:51;;;;;;;0.50;0.40;;;11.60;99.90;;;;;;5114609;28;20192;-81
2023/05/20 01:08:18;;;;;;;0.50;0.40;;;11.50;99.90;;;;;;5114686;28;20208;-83
2023/05/20 01:10:51;;;;;;;0.50;0.40;;;11.40;99.90;;;;;;5114135;28;20192;-81
2023/05/20 01:13:21;;;;;;;0.50;0.40;;;11.40;99.90;;;;;;5114066;28;20193;-84
2023/05/20 01:15:49;;;;;;;0.50;0.40;;;11.30;99.90;;;;;;5114526;28;20189;-83
2023/05/20 01:18:19;;;;;;;0.50;0.40;;;11.30;99.90;;;;;;5114178;28;20216;-83
2023/05/20 01:20:49;;;;;;;0.50;0.40;;;11.30;99.90;;;;;;5114141;28;20284;-81
2023/05/20 01:23:17;;;;;;;0.50;0.40;;;11.20;99.90;;;;;;5115213;28;20189;-82
2023/05/20 01:25:44;;;;;;;0.50;0.40;;;11.20;99.90;;;;;;5114292;28;20185;-81
2023/05/20 01:28:16;;;;;;;0.50;0.40;;;11.30;99.90;;;;;;5114025;28;20461;-81
2023/05/20 01:30:48;;;;;;;0.50;0.40;;;11.20;99.90;;;;;;5114762;28;20925;-81
2023/05/20 01:33:16;;;;;;;0.50;0.40;;;11.20;99.90;;;;;;5114214;28;20430;-82
2023/05/20 01:35:43;;;;;;;0.50;0.40;;;11.20;99.90;;;;;;5114582;28;20223;-81
2023/05/20 01:38:11;;;;;;;0.50;0.40;;;11.10;99.90;;;;;;5114546;28;20299;-80
2023/05/20 01:40:40;;;;;;;0.50;0.40;;;11.10;99.90;;;;;;5114610;28;20188;-81
2023/05/20 01:43:08;;;;;;;0.50;0.40;;;11.10;99.90;;;;;;5114044;28;20200;-80
2023/05/20 01:45:35;;;;;;;0.50;0.40;;;11.10;99.90;;;;;;5114093;28;20444;-81
2023/05/20 01:48:02;;;;;;;0.50;0.40;;;11.10;99.90;;;;;;5113631;28;20234;-82
2023/05/20 01:50:29;;;;;;;0.50;0.50;;;11.10;99.90;;;;;;5114319;28;20220;-80
2023/05/20 01:52:56;;;;;;;0.50;0.40;;;11.10;99.90;;;;;;5113869;28;20517;-82
2023/05/20 01:55:23;;;;;;;0.50;0.40;;;11.10;99.90;;;;;;5114208;28;20215;-81
2023/05/20 01:57:51;;;;;;;0.50;0.40;;;11.20;99.90;;;;;;5113758;28;20221;-83
2023/05/20 02:00:18;;;;;;;0.50;0.40;;;11.10;99.90;;;;;;5113850;28;20227;-82
2023/05/20 02:02:45;;;;;;;0.50;0.40;;;11.10;99.90;;;;;;5113940;28;20199;-82
2023/05/20 02:05:12;;;;;;;1.35;1.05;;;11.10;99.90;;;;;;5114052;28;20275;-79
2023/05/20 02:07:39;;;;;;;0.50;0.40;;;11.10;99.90;;;;;;5113780;28;20181;-82
2023/05/20 02:10:07;;;;;;;0.50;0.40;;;11.10;99.90;;;;;;5113863;28;20194;-80
2023/05/20 02:12:33;;;;;;;0.50;0.50;;;11.10;99.90;;;;;;5113643;28;20742;-78
2023/05/20 02:15:02;;;;;;;0.50;0.40;;;11.10;99.90;;;;;;5113762;28;20197;-80
2023/05/20 02:17:29;;;;;;;0.50;0.40;;;11.10;99.90;;;;;;5113617;28;20526;-80
2023/05/20 02:19:56;;;;;;;0.50;0.40;;;11.20;99.90;;;;;;5113778;28;20283;-82
2023/05/20 02:22:23;;;;;;;0.50;0.40;;;11.10;99.90;;;;;;5113725;28;20189;-80
2023/05/20 02:24:49;;;;;;;0.50;0.40;;;11.10;99.90;;;;;;5114843;28;20279;-80
2023/05/20 02:27:16;;;;;;;0.50;0.40;;;11.10;99.90;;;;;;5117616;28;20192;-82
2023/05/20 02:29:43;;;;;;;0.50;0.40;;;11.10;99.90;;;;;;5118368;28;20207;-81
2023/05/20 02:32:11;;;;;;;0.50;0.50;;;11.10;99.90;;;;;;5118063;28;20203;-80
2023/05/20 02:34:39;;;;;;;0.50;0.40;;;11.10;99.90;;;;;;5118339;28;20611;-80
2023/05/20 02:37:05;;;;;;;0.50;0.40;;;11.10;99.90;;;;;;5117555;28;20256;-81
2023/05/20 02:39:32;;;;;;;0.50;0.40;;;11.10;99.90;;;;;;5116870;28;20303;-82
2023/05/20 02:41:59;;;;;;;0.50;0.40;;;11.10;99.90;;;;;;5117565;28;20279;-81
2023/05/20 02:44:26;;;;;;;0.50;0.50;;;11.00;99.90;;;;;;5117670;28;20192;-81
2023/05/20 02:46:53;;;;;;;0.50;0.40;;;11.00;99.90;;;;;;5117507;28;20616;-80
2023/05/20 02:49:21;;;;;;;0.50;0.40;;;11.00;99.90;;;;;;5117735;28;20284;-82
2023/05/20 02:51:48;;;;;;;0.50;0.40;;;11.10;99.90;;;;;;5116632;28;20563;-81
2023/05/20 02:54:14;;;;;;;0.50;0.40;;;11.00;99.90;;;;;;5117158;28;20283;-80
2023/05/20 02:56:41;;;;;;;0.50;0.40;;;11.00;99.90;;;;;;5117277;28;20199;-83
2023/05/20 02:59:08;;;;;;;0.50;0.40;;;11.00;99.90;;;;;;5116880;28;20255;-82
2023/05/20 03:01:35;;;;;;;0.50;0.40;;;11.10;99.90;;;;;;5117148;28;20300;-81
2023/05/20 03:04:02;;;;;;;0.50;0.40;;;11.10;99.90;;;;;;5116781;28;20204;-83
2023/05/20 03:06:31;;;;;;;0.50;0.40;;;11.00;99.90;;;;;;5116998;28;20501;-82
2023/05/20 03:08:58;;;;;;;0.60;0.60;;;11.00;99.90;;;;;;5117307;28;20217;-83
2023/05/20 03:11:25;;;;;;;0.50;0.40;;;11.00;99.90;;;;;;5117263;28;20188;-82
2023/05/20 03:13:52;;;;;;;0.50;0.40;;;11.00;99.90;;;;;;5116790;28;20208;-84
2023/05/20 03:16:19;;;;;;;0.50;0.40;;;11.00;99.90;;;;;;5108747;28;20185;-82
2023/05/20 03:18:46;;;;;;;0.50;0.40;;;11.00;99.90;;;;;;5116575;28;20222;-80
2023/05/20 03:21:12;;;;;;;0.50;0.40;;;11.00;99.90;;;;;;5116788;28;20250;-82
2023/05/20 03:23:41;;;;;;;0.50;0.40;;;11.00;99.90;;;;;;5116700;28;20203;-80
2023/05/20 03:26:08;;;;;;;0.50;0.40;;;11.00;99.90;;;;;;5116428;28;20220;-82
2023/05/20 03:28:35;;;;;;;0.50;0.40;;;11.00;99.90;;;;;;5116296;28;20287;-82
2023/05/20 03:31:03;;;;;;;0.50;0.40;;;11.00;99.90;;;;;;5115893;28;20276;-81
2023/05/20 03:33:30;;;;;;;0.50;0.40;;;11.00;99.90;;;;;;5116172;28;20245;-83
2023/05/20 03:35:57;;;;;;;0.50;0.40;;;10.90;99.90;;;;;;5116016;28;20275;-82
2023/05/20 03:38:24;;;;;;;0.50;0.40;;;10.90;99.90;;;;;;5115718;28;20299;-83
2023/05/20 03:40:52;;;;;;;0.63;0.60;;;10.90;99.90;;;;;;5116143;28;20210;-82
2023/05/20 03:43:18;;;;;;;0.50;0.40;;;10.80;99.90;;;;;;5115838;28;20191;-82
2023/05/20 03:45:45;;;;;;;0.50;0.40;;;10.90;99.90;;;;;;5115914;28;20895;-82
2023/05/20 03:48:12;;;;;;;0.50;0.40;;;10.90;99.90;;;;;;5116447;28;20219;-81
2023/05/20 03:50:39;;;;;;;0.50;0.40;;;11.00;99.90;;;;;;5115812;28;20968;-82
2023/05/20 03:53:06;;;;;;;0.50;0.40;;;11.00;99.90;;;;;;5115878;28;20196;-81
2023/05/20 03:55:33;;;;;;;0.50;0.40;;;11.00;99.90;;;;;;5116103;28;20714;-82
2023/05/20 03:58:01;;;;;;;0.50;0.40;;;11.00;99.90;;;;;;5115676;28;20703;-81
2023/05/20 04:00:30;;;;;;;1.50;1.40;;;10.90;99.90;;;;;;5116330;28;20557;-82
2023/05/20 04:02:57;;;;;;;0.50;0.40;;;11.00;99.90;;;;;;5115486;28;20188;-82
2023/05/20 04:05:23;;;;;;;0.50;0.40;;;11.00;99.90;;;;;;5116562;28;20191;-83
2023/05/20 04:07:50;;;;;;;0.50;0.40;;;11.10;99.90;;;;;;5115613;28;20553;-82
2023/05/20 04:10:19;;;;;;;0.50;0.40;;;11.10;99.90;;;;;;5115725;28;20255;-83
2023/05/20 04:12:46;;;;;;;0.50;0.40;;;11.10;99.90;;;;;;5115412;28;20195;-83
2023/05/20 04:15:14;;;;;;;0.50;0.40;;;11.10;99.90;;;;;;5115441;28;20220;-83
2023/05/20 04:17:42;;;;;;;0.50;0.40;;;11.10;99.90;;;;;;5115428;28;20196;-81
2023/05/20 04:20:10;;;;;;;1.15;1.15;;;11.20;99.90;;;;;;5114811;28;20564;-82
2023/05/20 04:22:38;;;;;;;0.50;0.40;;;11.30;99.90;;;;;;5114674;28;20192;-81
2023/05/20 04:25:05;;;;;;;0.77;0.77;;;11.30;99.90;;;;;;5115515;28;20196;-82
2023/05/20 04:27:33;;;;;;;0.50;0.40;;;11.30;99.90;;;;;;5115459;28;20222;-83
2023/05/20 04:30:01;;;;;;;0.50;0.40;;;11.30;99.90;;;;;;5115211;28;20199;-82
2023/05/20 04:32:29;;;;;;;0.50;0.40;;;11.40;99.90;;;;;;5114817;28;20470;-82
2023/05/20 04:34:56;;;;;;;0.50;0.40;;;11.40;99.90;;;;;;5114808;28;20196;-81
2023/05/20 04:37:24;;;;;;;0.50;0.40;;;11.40;99.90;;;;;;5114729;28;20275;-83
2023/05/20 04:39:51;;;;;;;0.50;0.40;;;11.50;99.90;;;;;;5114880;28;20212;-83
2023/05/20 04:42:19;;;;;;;0.50;0.40;;;11.40;99.90;;;;;;5114787;28;20731;-81
2023/05/20 04:44:46;;;;;;;0.50;0.43;;;11.50;99.90;;;;;;5115057;28;20477;-82
2023/05/20 04:47:13;;;;;;;0.50;0.40;;;11.50;99.90;;;;;;5114333;28;20450;-82
2023/05/20 04:49:42;;;;;;;0.50;0.40;;;11.50;99.90;;;;;;5114437;28;20771;-84
2023/05/20 04:52:09;;;;;;;0.50;0.40;;;11.60;99.90;;;;;;5113906;28;20731;-82
2023/05/20 04:54:36;;;;;;;0.60;0.57;;;11.60;99.90;;;;;;5114882;28;20438;-82
2023/05/20 04:57:03;;;;;;;0.50;0.40;;;11.70;99.90;;;;;;5114807;28;20207;-82
2023/05/20 04:59:30;;;;;;;0.50;0.40;;;11.70;99.90;;;;;;5119860;28;20476;-79
2023/05/20 05:01:56;;;;;;;0.50;0.40;;;11.80;99.90;;;;;;5127397;28;20260;-79
2023/05/20 05:04:23;;;;;;;0.50;0.40;;;11.80;99.90;;;;;;5126887;28;20522;-79
2023/05/20 05:06:51;;;;;;;0.50;0.40;;;11.80;99.90;;;;;;5127178;28;20462;-82
2023/05/20 05:09:18;;;;;;;0.50;0.50;;;11.90;99.90;;;;;;5117497;28;20493;-82
2023/05/20 05:11:45;;;;;;;0.50;0.40;;;12.00;99.90;;;;;;5114496;28;20951;-81
2023/05/20 05:14:12;;;;;;;0.70;0.70;;;12.00;99.90;;;;;;5114527;28;20610;-81
2023/05/20 05:16:38;;;;;;;0.50;0.50;;;12.10;99.90;;;;;;5114704;28;20445;-83
2023/05/20 05:19:06;;;;;;;0.50;0.40;;;12.20;99.90;;;;;;5113494;28;20565;-81
2023/05/20 05:21:32;;;;;;;0.50;0.40;;;12.30;99.90;;;;;;5115159;28;20533;-81
2023/05/20 05:24:00;;;;;;;0.50;0.40;;;12.40;99.90;;;;;;5114052;28;20444;-81
2023/05/20 05:26:27;;;;;;;0.50;0.40;;;12.50;99.90;;;;;;5106258;28;20759;-83
2023/05/20 05:28:54;;;;;;;0.50;0.40;;;12.50;99.90;;;;;;5113911;28;21005;-81
2023/05/20 05:31:21;;;;;;;0.50;0.40;;;12.60;99.90;;;;;;5114269;28;20439;-83
2023/05/20 05:33:48;;;;;;;0.93;0.70;;;12.70;99.90;;;;;;5113998;28;20468;-81
2023/05/20 05:36:16;;;;;;;0.50;0.40;;;12.90;99.90;;;;;;5113971;28;20870;-82
2023/05/20 05:38:43;;;;;;;0.63;0.63;;;13.00;99.90;;;;;;5113796;28;20470;-81
2023/05/20 05:41:11;;;;;;;0.50;0.40;;;13.00;99.90;;;;;;5113787;28;20925;-83
2023/05/20 05:43:38;;;;;;;0.50;0.40;;;13.20;99.90;;;;;;5114166;28;20437;-84
2023/05/20 05:46:05;;;;;;;0.67;0.50;;;13.30;99.90;;;;;;5114433;28;20445;-82
2023/05/20 05:48:32;;;;;;;0.50;0.40;;;13.40;99.90;;;;;;5114720;28;20461;-80
2023/05/20 05:50:59;;;;;;;0.50;0.40;;;13.50;99.90;;;;;;5114437;28;20782;-83
2023/05/20 05:53:25;;;;;;;0.53;0.40;;;13.60;99.90;;;;;;5113836;28;20529;-81
2023/05/20 05:55:52;;;;;;;0.50;0.40;;;13.80;99.90;;;;;;5114252;28;20920;-83
2023/05/20 05:58:20;;;;;;;0.53;0.50;;;13.90;99.90;;;;;;5114070;28;20462;-84
2023/05/20 06:00:50;;;;;;;0.50;0.40;;;14.00;99.90;;;;;;5115738;28;20472;-83
2023/05/20 06:03:17;;;;;;;0.50;0.40;;;14.20;99.90;;;;;;5118330;28;20434;-83
2023/05/20 06:05:46;;;;;;;0.83;0.83;;;14.50;99.90;;;;;;5118245;28;20438;-84
2023/05/20 06:08:12;;;;;;;0.50;0.40;;;15.40;99.90;;;;;;5117776;28;20462;-83
2023/05/20 06:10:39;;;;;;;0.50;0.50;;;16.80;99.90;;;;;;5117566;28;20434;-84
2023/05/20 06:13:06;;;;;;;0.60;0.57;;;18.00;99.90;;;;;;5118000;28;20525;-82
2023/05/20 06:15:35;;;;;;;0.80;0.73;;;19.00;99.90;;;;;;5118329;28;20534;-80
2023/05/20 06:18:01;;;;;;;5.37;4.13;;;19.80;99.90;;;;;;5117760;28;20556;-83
2023/05/20 06:20:28;;;;;;;0.50;0.40;;;20.70;97.60;;;;;;5117706;28;20853;-84
2023/05/20 06:22:55;;;;;;;1.23;1.13;;;21.30;94.20;;;;;;5117720;28;20525;-83
2023/05/20 06:25:22;;;;;;;1.13;1.03;;;21.60;91.70;;;;;;5117817;28;20441;-82
2023/05/20 06:27:49;;;;;;;0.50;0.33;;;22.10;85.50;;;;;;5118371;28;20868;-81
2023/05/20 06:30:16;;;;;;;0.50;0.50;;;22.50;86.40;;;;;;5117419;28;20521;-84
2023/05/20 06:32:45;;;;;;;0.70;0.67;;;22.40;84.70;;;;;;5117135;28;20430;-82
2023/05/20 06:35:12;;;;;;;0.73;0.73;;;22.90;84.60;;;;;;5117755;28;20802;-80
2023/05/20 06:37:39;;;;;;;0.60;0.53;;;22.50;81.40;;;;;;5117274;28;20440;-80
2023/05/20 06:40:08;;;;;;;0.50;0.30;;;22.30;81.20;;;;;;5117204;28;20565;-82
2023/05/20 06:42:34;;;;;;;0.50;0.40;;;21.80;81.40;;;;;;5117373;28;20441;-80
2023/05/20 06:45:01;;;;;;;0.50;0.37;;;21.40;83.60;;;;;;5117304;28;20434;-81
2023/05/20 06:47:28;;;;;;;0.50;0.33;;;20.90;85.10;;;;;;5116929;28;20438;-79
2023/05/20 06:49:56;;;;;;;0.60;0.50;;;20.50;89.20;;;;;;5116927;28;20749;-84
2023/05/20 06:52:23;;;;;;;1.50;0.83;;;20.70;88.20;;;;;;5117366;28;20887;-80
2023/05/20 06:54:50;;;;;;;2.80;2.53;;;20.70;86.60;;;;;;5118207;28;20498;-81
2023/05/20 06:57:17;;;;;;;0.50;0.30;;;20.50;88.30;;;;;;5119342;28;20438;-83
2023/05/20 06:59:43;;;;;;;0.50;0.40;;;20.10;89.70;;;;;;5118627;28;20775;-82
2023/05/20 07:02:11;;;;;;;0.50;0.40;;;19.90;91.50;;;;;;5118288;28;20434;-83
2023/05/20 07:04:38;;;;;;;0.50;0.40;;;20.00;91.60;;;;;;5118637;28;20670;-82
2023/05/20 07:07:06;;;;;;;1.30;1.20;;;19.90;94.20;;;;;;5118213;28;21020;-83
2023/05/20 07:09:33;;;;;;;1.57;1.47;;;19.70;93.10;;;;;;5119372;28;20877;-81
2023/05/20 07:11:59;;;;;;;0.50;0.40;;;19.00;93.20;;;;;;5117565;28;20430;-82
2023/05/20 07:14:26;;;;;;;0.70;0.67;;;18.60;97.30;;;;;;5117916;28;20529;-81
2023/05/20 07:16:53;;;;;;;0.50;0.40;;;18.30;99.90;;;;;;5119065;28;21017;-84
2023/05/20 07:19:20;;;;;;;0.50;0.40;;;17.90;99.90;;;;;;5119379;28;20478;-81
2023/05/20 07:21:48;;;;;;;0.50;0.40;;;17.90;99.90;;;;;;5118661;28;20743;-80
2023/05/20 07:24:16;;;;;;;0.60;0.50;;;18.10;99.90;;;;;;5119724;28;20438;-83
2023/05/20 07:26:43;;;;;;;1.33;0.80;;;18.30;99.90;;;;;;5120140;28;20498;-83
2023/05/20 07:29:10;;;;;;;0.60;0.50;;;17.90;99.90;;;;;;5119713;28;20459;-81
2023/05/20 07:31:37;;;;;;;0.50;0.40;;;17.90;99.90;;;;;;5120594;28;20497;-80
2023/05/20 07:34:04;;;;;;;0.70;0.60;;;17.70;99.90;;;;;;5119681;28;20517;-82
2023/05/20 07:36:31;;;;;;;1.87;1.77;;;17.90;99.90;;;;;;5120510;28;20434;-82
2023/05/20 07:38:58;;;;;;;1.60;1.50;;;17.70;99.90;;;;;;5118509;28;20485;-83
2023/05/20 07:41:26;;;;;;;0.60;0.53;;;17.70;99.90;;;;;;5118798;28;20950;-82
2023/05/20 07:43:53;;;;;;;1.43;0.93;;;17.70;99.90;;;;;;5119411;28;20533;-83
2023/05/20 07:46:20;;;;;;;0.80;0.50;;;17.50;99.90;;;;;;5119010;28;20517;-82
2023/05/20 07:48:47;;;;;;;0.50;0.30;;;17.50;99.90;;;;;;5117896;28;20805;-83
2023/05/20 07:51:13;;;;;;;1.17;1.07;;;17.40;99.90;;;;;;5119396;28;20450;-81
2023/05/20 07:53:40;;;;;;;1.07;0.57;;;17.60;99.90;;;;;;5122022;28;20897;-83
2023/05/20 07:56:07;;;;;;;3.33;2.47;;;17.30;99.90;;;;;;5122424;28;20437;-82
2023/05/20 07:58:35;;;;;;;0.50;0.50;;;17.40;99.90;;;;;;5122565;28;20870;-81
2023/05/20 08:01:02;;;;;;;0.60;0.50;;;17.40;99.90;;;;;;5123241;28;20565;-80
2023/05/20 08:03:29;;;;;;;0.50;0.40;;;17.70;99.90;;;;;;5121142;28;20487;-82
2023/05/20 08:05:56;;;;;;;0.50;0.40;;;17.80;99.90;;;;;;5121145;28;20449;-82
2023/05/20 08:08:23;;;;;;;0.60;0.60;;;18.00;99.90;;;;;;5121428;28;20447;-83
2023/05/20 08:10:51;;;;;;;3.90;1.53;;;18.20;99.90;;;;;;5121501;28;20457;-84
2023/05/20 08:13:18;;;;;;;0.50;0.40;;;18.10;99.90;;;;;;5121431;28;20487;-83
2023/05/20 08:15:47;;;;;;;0.50;0.30;;;18.10;99.90;;;;;;5120406;28;20458;-82
2023/05/20 08:18:14;;;;;;;1.00;0.83;;;18.30;99.90;;;;;;5115131;28;20496;-83
2023/05/20 08:20:41;;;;;;;1.23;1.07;;;18.40;99.90;;;;;;5114964;28;20466;-83
2023/05/20 08:23:08;;;;;;;40.90;7.43;;;18.60;99.90;;;;;;5115604;28;20438;-83
2023/05/20 08:25:35;;;;;;;2.47;0.57;;;18.70;99.90;;;;;;5115256;28;20466;-82
2023/05/20 08:28:04;;;;;;;0.63;0.63;;;18.80;99.90;;;;;;5115392;28;20462;-83
2023/05/20 08:30:31;;;;;;;0.50;0.40;;;18.80;99.90;;;;;;5115223;28;20438;-82
2023/05/20 08:33:00;;;;;;;1.13;1.03;;;19.10;99.90;;;;;;5114948;28;20449;-84
2023/05/20 08:35:27;;;;;;;1.33;1.13;;;19.10;99.90;;;;;;5114952;28;20934;-83
2023/05/20 08:37:54;;;;;;;0.50;0.40;;;19.00;99.90;;;;;;5115063;28;20546;-83
2023/05/20 08:40:21;;;;;;;7.93;2.10;;;18.90;99.90;;;;;;5114967;28;20480;-83
2023/05/20 08:42:49;;;;;;;1.83;1.73;;;19.00;99.90;;;;;;5114840;28;20441;-82
2023/05/20 08:45:18;;;;;;;0.50;0.30;;;19.40;99.90;;;;;;5116160;28;20533;-82
2023/05/20 08:47:46;;;;;;;0.50;0.43;;;19.80;99.90;;;;;;5122462;28;20442;-83
2023/05/20 08:50:14;;;;;;;0.50;0.30;;;20.10;99.90;;;;;;5113782;28;20422;-85
2023/05/20 08:52:44;;;;;;;1.43;1.33;;;21.20;99.90;;;;;;5115025;28;20439;-80
2023/05/20 08:55:15;;;;;;;1.33;0.90;;;22.20;99.80;;;;;;5123816;28;20782;-80
2023/05/20 08:57:44;;;;;;;6.90;1.17;;;22.20;91.90;;;;;;5122866;28;20513;-80
2023/05/20 09:00:15;;;;;;;0.80;0.80;;;21.90;91.40;;;;;;5124154;28;20463;-81
2023/05/20 09:02:42;;;;;;;0.50;0.30;;;21.30;92.80;;;;;;5115412;28;20529;-79
2023/05/20 09:05:10;;;;;;;0.50;0.30;;;21.10;96.10;;;;;;5124836;28;20419;-80
2023/05/20 09:07:41;;;;;;;1.40;1.30;;;21.10;94.40;;;;;;5123342;28;20466;-80
2023/05/20 09:10:08;;;;;;;0.80;0.63;;;20.90;95.30;;;;;;5124729;28;20427;-80
2023/05/20 09:12:36;;;;;;;0.60;0.60;;;20.70;93.50;;;;;;5124158;28;20510;-82
2023/05/20 09:15:03;;;;;;;0.50;0.30;;;20.50;97.30;;;;;;5117660;28;20431;-83
2023/05/20 09:17:30;;;;;;;0.50;0.30;;;20.60;95.60;;;;;;5114112;28;20960;-79
2023/05/20 09:19:57;;;;;;;0.50;0.30;;;20.60;96.20;;;;;;5113907;28;20553;-82
2023/05/20 09:22:24;;;;;;;0.50;0.30;;;20.60;96.50;;;;;;5114367;28;20430;-81
2023/05/20 09:24:52;;;;;;;1.53;1.43;;;20.70;97.00;;;;;;5114569;28;20442;-81
2023/05/20 09:27:20;;;;;;;3.27;2.07;;;20.70;96.20;;;;;;5114505;28;21000;-82
2023/05/20 09:29:48;;;;;;;6.87;1.17;;;20.30;96.70;;;;;;5112689;28;20477;-82
2023/05/20 09:32:15;;;;;;;0.60;0.40;;;20.10;97.90;;;;;;5113410;28;20434;-82
2023/05/20 09:34:44;;;;;;;0.73;0.60;;;19.90;99.90;;;;;;5106046;28;20939;-82
2023/05/20 09:37:11;;;;;;;0.50;0.30;;;20.00;99.90;;;;;;5114759;28;20472;-82
2023/05/20 09:39:47;;;;;;;0.70;0.70;;;20.10;99.90;;;;;;5113460;28;20465;-83
2023/05/20 09:42:20;;;;;;;0.50;0.30;;;20.30;99.90;;;;;;5114634;28;20442;-83
2023/05/20 09:44:50;;;;;;;1.50;1.07;;;20.50;99.90;;;;;;5106690;28;20461;-83
2023/05/20 09:47:17;;;;;;;0.50;0.30;;;20.20;99.90;;;;;;5114245;28;20513;-80
2023/05/20 09:49:46;;;;;;;1.23;1.13;;;20.00;99.90;;;;;;5114218;28;20450;-82
2023/05/20 09:52:15;;;;;;;1.87;1.77;;;19.90;99.90;;;;;;5113834;28;20439;-81
2023/05/20 09:54:44;;;;;;;1.47;0.70;;;20.00;99.90;;;;;;5105599;28;20525;-80
2023/05/20 09:57:12;;;;;;;0.50;0.40;;;19.90;99.90;;;;;;5114452;28;20517;-82
2023/05/20 09:59:40;;;;;;;0.67;0.67;;;19.80;99.90;;;;;;5114065;28;20541;-83
2023/05/20 10:02:09;;;;;;;0.60;0.40;;;19.90;99.90;;;;;;5114190;28;20469;-83
2023/05/20 10:04:38;;;;;;;0.50;0.30;;;19.80;99.90;;;;;;5114072;28;20438;-82
2023/05/20 10:07:36;;;;;;;0.50;0.30;;;19.70;99.90;;;;;;5114582;28;20470;-83
2023/05/20 10:10:14;;;;;;;0.50;0.30;;;19.70;99.90;;;;;;5093542;28;20442;-81
2023/05/20 10:12:51;;;;;;;3.13;1.50;;;19.60;99.90;;;;;;5113731;28;20770;-82
2023/05/20 10:15:27;;;;;;;4.77;1.17;;;19.60;99.90;;;;;;5114097;28;20434;-82
2023/05/20 10:18:02;;;;;;;13.63;0.87;;;19.60;99.90;;;;;;5113823;28;20468;-84
2023/05/20 10:20:30;;;;;;;0.77;0.57;;;19.60;99.90;;;;;;5113632;28;20470;-83
2023/05/20 10:22:58;;;;;;;4.00;3.83;;;19.50;99.90;;;;;;5113127;28;20438;-81
2023/05/20 10:25:28;;;;;;;0.60;0.50;;;19.50;99.90;;;;;;5113857;28;20471;-82
2023/05/20 10:28:06;;;;;;;0.57;0.47;;;19.40;99.90;;;;;;5113732;28;20490;-83
2023/05/20 10:30:34;;;;;;;1.17;1.07;;;19.60;99.90;;;;;;5113787;28;20438;-82
2023/05/20 10:33:05;;;;;;;0.60;0.40;;;19.60;99.90;;;;;;5113811;28;20442;-82
2023/05/20 10:35:32;;;;;;;1.13;1.10;;;19.50;99.90;;;;;;5112976;28;20438;-82
2023/05/20 10:38:10;;;;;;;1.00;1.00;;;19.70;99.90;;;;;;5113801;28;20537;-80
2023/05/20 10:40:37;;;;;;;0.50;0.30;;;19.50;99.90;;;;;;5113709;28;20465;-81
2023/05/20 10:43:11;;;;;;;1.30;1.10;;;19.40;99.90;;;;;;5113508;28;20529;-82
2023/05/20 10:45:49;;;;;;;2.63;2.43;;;19.30;99.90;;;;;;5113961;28;20439;-82
2023/05/20 10:48:28;;;;;;;1.43;1.33;;;19.30;99.90;;;;;;5115765;28;20456;-82
2023/05/20 10:50:56;;;;;;;0.50;0.40;;;19.20;99.90;;;;;;5117203;28;20472;-80
2023/05/20 10:53:24;;;;;;;1.77;1.67;;;19.10;99.90;;;;;;5116791;28;20521;-82
2023/05/20 10:55:53;;;;;;;0.60;0.50;;;19.20;99.90;;;;;;5117686;28;20434;-80
2023/05/20 10:58:22;;;;;;;0.50;0.40;;;19.20;99.90;;;;;;5117063;28;20507;-82
2023/05/20 11:00:53;;;;;;;1.50;1.40;;;19.10;99.90;;;;;;5117921;28;20473;-83
2023/05/20 11:03:22;;;;;;;0.50;0.30;;;19.00;99.90;;;;;;5116473;28;20434;-82
2023/05/20 11:05:50;;;;;;;1.80;0.97;;;19.10;99.90;;;;;;5108414;28;20434;-82
2023/05/20 11:08:17;;;;;;;2.10;1.83;;;19.40;99.90;;;;;;5116808;28;20541;-83
2023/05/20 11:10:44;;;;;;;1.00;0.60;;;19.40;99.90;;;;;;5116395;28;20513;-82
2023/05/20 11:13:14;;;;;;;0.50;0.30;;;19.50;99.90;;;;;;5116877;28;20430;-81
2023/05/20 11:15:42;;;;;;;0.60;0.50;;;19.60;99.90;;;;;;5116285;28;21003;-83
2023/05/20 11:18:13;;;;;;;0.50;0.40;;;19.50;99.90;;;;;;5116321;28;20462;-82
2023/05/20 11:20:41;;;;;;;0.70;0.67;;;19.60;99.90;;;;;;5116504;28;20542;-82
2023/05/20 11:23:12;;;;;;;0.50;0.30;;;19.60;99.90;;;;;;5117087;28;20474;-81
2023/05/20 11:25:39;;;;;;;0.70;0.60;;;19.50;99.90;;;;;;5116956;28;20943;-81
2023/05/20 11:28:10;;;;;;;2.10;0.83;;;19.70;99.90;;;;;;5116372;28;20981;-82
2023/05/20 11:30:37;;;;;;;1.07;1.07;;;19.60;99.90;;;;;;5116873;28;20443;-82
2023/05/20 11:33:04;;;;;;;0.50;0.30;;;19.60;99.90;;;;;;5116466;28;20434;-82
2023/05/20 11:35:33;;;;;;;7.20;1.57;;;19.80;99.90;;;;;;5117142;28;20439;-80
2023/05/20 11:38:03;;;;;;;1.17;1.07;;;20.00;99.90;;;;;;5116777;28;20473;-83
2023/05/20 11:40:31;;;;;;;0.60;0.60;;;20.00;99.90;;;;;;5116405;28;20899;-82
2023/05/20 11:43:00;;;;;;;0.50;0.40;;;20.20;99.90;;;;;;5115883;28;20470;-81
2023/05/20 11:45:27;;;;;;;0.50;0.40;;;20.30;99.90;;;;;;5116361;28;20801;-82
2023/05/20 11:48:01;;;;;;;0.60;0.50;;;20.50;99.90;;;;;;5115931;28;20469;-82
2023/05/20 11:50:28;;;;;;;0.50;0.30;;;20.80;99.90;;;;;;5117575;28;20438;-84
2023/05/20 11:52:59;;;;;;;0.70;0.50;;;21.20;99.90;;;;;;5116165;28;20521;-82
2023/05/20 11:55:26;;;;;;;0.70;0.40;;;21.50;99.90;;;;;;5116261;28;20442;-81
2023/05/20 11:57:53;;;;;;;0.50;0.30;;;21.70;99.90;;;;;;5115694;28;20504;-83
2023/05/20 12:00:20;;;;;;;0.50;0.30;;;21.90;99.90;;;;;;5115873;28;20434;-82
2023/05/20 12:02:47;;;;;;;1.40;1.17;;;22.10;99.90;;;;;;5115721;28;20474;-82
2023/05/20 12:05:15;;;;;;;0.50;0.30;;;22.60;99.90;;;;;;5116529;28;20445;-81
2023/05/20 12:07:42;;;;;;;0.53;0.53;;;23.60;97.40;;;;;;5115659;28;20438;-82
2023/05/20 12:10:12;;;;;;;0.50;0.50;;;24.20;93.50;;;;;;5115424;28;20434;-80
2023/05/20 12:12:39;;;;;;;0.50;0.30;;;24.10;91.40;;;;;;5115680;28;20439;-79
2023/05/20 12:15:07;;;;;;;1.47;0.87;;;24.20;90.90;;;;;;5116349;28;20434;-82
2023/05/20 12:17:44;;;;;;;0.50;0.40;;;24.10;90.40;;;;;;5114630;28;20953;-83
2023/05/20 12:20:13;;;;;;;0.90;0.90;;;23.90;90.30;;;;;;5115986;28;20499;-82
2023/05/20 12:22:40;;;;;;;0.70;0.70;;;24.20;90.00;;;;;;5114934;28;20973;-82
2023/05/20 12:25:08;;;;;;;2.40;0.50;;;25.00;89.30;;;;;;5115281;28;20457;-82
2023/05/20 12:27:36;;;;;;;0.67;0.67;;;25.30;87.80;;;;;;5117420;28;20446;-82
2023/05/20 12:30:04;;;;;;;0.50;0.40;;;25.80;82.70;;;;;;5122373;28;20526;-81
2023/05/20 12:32:31;;;;;;;0.57;0.47;;;25.80;77.70;;;;;;5121622;28;20439;-84
2023/05/20 12:34:58;;;;;;;2.10;1.90;;;26.00;78.80;;;;;;5122620;28;20462;-81
2023/05/20 12:37:24;;;;;;;0.50;0.30;;;26.40;76.70;;;;;;5118367;28;20538;-81
2023/05/20 12:39:51;;;;;;;0.60;0.60;;;26.30;77.10;;;;;;5114707;28;20508;-81
2023/05/20 12:42:18;;;;;;;0.60;0.53;;;25.90;77.70;;;;;;5115096;28;20482;-82
2023/05/20 12:44:46;;;;;;;0.50;0.30;;;25.90;78.50;;;;;;5114655;28;20525;-82
2023/05/20 12:47:13;;;;;;;0.50;0.40;;;25.80;77.60;;;;;;5115045;28;20435;-83
2023/05/20 12:49:40;;;;;;;0.60;0.60;;;25.40;76.60;;;;;;5114839;28;20458;-81
2023/05/20 12:52:07;;;;;;;0.50;0.40;;;25.00;75.80;;;;;;5115400;28;20475;-82